Etusivu
METAR-TAF:

METAR-TAF

Lentoasemat :

Lyypekki, Saksa

Leveyspiiri: 53-49N, Pituuspiiri: 010-42E, korkeus merenpinnasta: 14 m

Tämänhetkinen sää

Tämä raportti tehtiin 9 tuntia ja 46 minuuttia sitten, kello 19.20 UTC
Tuuli 4 kn lounaasta
Lämpötila 5°C
Kosteus 100%
Ilmanpaine 1020 hPa
Näkyvyys 10 km tai enemmän
sumuhattaroita

METAR: EDHL 261920Z 23004KT 9999 BCFG NSC 05/05 Q1020

Aika: 06:06 (05:06 UTC)

Sääennuste

Tämä raportti tehtiin 12 tuntia ja 6 minuuttia sitten, kello 17.00 UTC
Ennuste voimassa 26. päivästä klo 18 UTC - 26. päivään klo 21 UTC
Tuuli 3 kn lounaasta
Näkyvyys 10 km tai enemmän
ei pilviä alle 1500 m:ssä eikä cumulonimbus-pilviä
Tulossa
26. päivästä klo 19 UTC - 26. päivään klo 21 UTC
Näkyvyys: 3500 m
utua
Todennäköisyys 30% :
Ajoittain
26. päivästä klo 20 UTC - 26. päivään klo 21 UTC
Näkyvyys: 0800 m
sumua

TAF: EDHL 261700Z 2618/2621 22003KT CAVOK BECMG 2619/2621 3500 BR PROB30 TEMPO 2620/2621 0800 FG

Säähavainnot ja -ennusteet yli 4000 lentoasemalta (METAR- ja TAF-raportit).

Käytössä olevat sääasemat on merkitty karttaan keltaisilla ja punaisilla pisteillä.

Aseta hiiri pisteen päälle nähdäksesi sääaseman nimen.

Klikkaa sitten nähdäksesi säähavainnot ja -ennusteet.

Kartan vaihtaminen: klikkaa mustalla rastilla varustettuja vihreitä pisteitä, niin voit zoomata sisään; viivalla varustettua vihreää pistettä, niin voit zoomata ulos tai vihreitä nuolia, niin pääset viereisille kartoille.


METAR-TAF: